Time;durP1;ratioP1;P1;durP2;ratioP2;P2;SDS_P1;SDS_P2;PMS_P1;PMS_P2;Temp;Humidity;BMP_temperature;BMP_pressure;BME280_temperature;BME280_humidity;BME280_pressure;Samples;Min_cycle;Max_cycle;Signal;HPM_P1;HPM_P2
2024/03/26 00:00:41;;;;;;;;;;;;;;;18.33;43.25;98049.13;10330874;28;818;-73
2024/03/26 00:05:37;;;;;;;;;;;;;;;18.32;43.29;98046.63;10330604;28;1949;-73
2024/03/26 00:10:33;;;;;;;;;;;;;;;18.32;43.25;98038.72;10329741;28;1000;-73
2024/03/26 00:15:29;;;;;;;;;;;;;;;18.32;43.16;98029.00;10329608;28;951;-73
2024/03/26 00:20:25;;;;;;;;;;;;;;;18.31;43.28;98023.81;10328923;28;1083;-73
2024/03/26 00:25:21;;;;;;;;;;;;;;;18.29;43.29;98018.66;10329532;28;1894;-73
2024/03/26 00:30:17;;;;;;;;;;;;;;;18.29;43.25;98009.94;10328912;28;1324;-73
2024/03/26 00:35:13;;;;;;;;;;;;;;;18.28;43.16;98008.22;10328937;28;778;-73
2024/03/26 00:40:08;;;;;;;;;;;;;;;18.27;43.26;98007.38;10328663;28;881;-73
2024/03/26 00:45:04;;;;;;;;;;;;;;;18.25;43.16;98004.00;10329026;28;1918;-73
2024/03/26 00:50:00;;;;;;;;;;;;;;;18.25;43.37;98000.53;10328838;28;842;-73
2024/03/26 00:54:56;;;;;;;;;;;;;;;18.25;43.23;97995.25;10328654;28;866;-73
2024/03/26 00:59:52;;;;;;;;;;;;;;;18.23;43.25;97991.88;10327291;28;957;-73
2024/03/26 01:04:48;;;;;;;;;;;;;;;18.23;43.22;97978.72;10327417;28;1894;-73
2024/03/26 01:09:44;;;;;;;;;;;;;;;18.22;42.99;97980.50;10327402;28;857;-73
2024/03/26 01:14:40;;;;;;;;;;;;;;;18.22;43.22;97974.41;10326680;28;877;-73
2024/03/26 01:19:35;;;;;;;;;;;;;;;18.19;43.05;97962.28;10327692;28;919;-73
2024/03/26 01:24:31;;;;;;;;;;;;;;;18.18;43.16;97958.81;10327706;28;1894;-73
2024/03/26 01:29:27;;;;;;;;;;;;;;;18.18;43.11;97942.97;10327290;28;1377;-73
2024/03/26 01:34:23;;;;;;;;;;;;;;;18.16;43.13;97942.25;10326558;28;985;-73
2024/03/26 01:39:19;;;;;;;;;;;;;;;18.17;43.16;97922.81;10325927;28;786;-73
2024/03/26 01:44:15;;;;;;;;;;;;;;;18.15;43.13;97923.88;10326093;28;1906;-73
2024/03/26 01:49:11;;;;;;;;;;;;;;;18.15;43.19;97923.88;10325417;28;1183;-73
2024/03/26 01:54:07;;;;;;;;;;;;;;;18.13;43.08;97918.75;10325990;28;885;-73
2024/03/26 01:59:03;;;;;;;;;;;;;;;18.14;43.09;97914.31;10326461;28;775;-73
2024/03/26 02:03:58;;;;;;;;;;;;;;;18.11;43.23;97910.09;10326478;28;1894;-73
2024/03/26 02:08:57;;;;;;;;;;;;;;;18.11;43.14;97904.84;10326164;28;795;-73
2024/03/26 02:13:53;;;;;;;;;;;;;;;18.10;43.30;97905.78;10325983;28;791;-73
2024/03/26 02:18:49;;;;;;;;;;;;;;;18.09;43.13;97890.06;10326630;28;978;-73
2024/03/26 02:23:45;;;;;;;;;;;;;;;18.09;43.04;97884.81;10325238;28;1886;-73
2024/03/26 02:28:41;;;;;;;;;;;;;;;18.08;43.11;97869.94;10325684;28;1200;-73
2024/03/26 02:33:37;;;;;;;;;;;;;;;18.06;42.92;97859.50;10325199;28;802;-73
2024/03/26 02:38:32;;;;;;;;;;;;;;;18.06;43.10;97837.59;10325667;28;936;-73
2024/03/26 02:43:28;;;;;;;;;;;;;;;18.05;43.09;97826.19;10324964;28;2034;-73
2024/03/26 02:48:24;;;;;;;;;;;;;;;18.04;43.18;97816.59;10326696;28;905;-73
2024/03/26 02:53:23;;;;;;;;;;;;;;;18.03;43.13;97822.00;10332978;28;787;-73
2024/03/26 02:58:19;;;;;;;;;;;;;;;18.04;43.19;97823.66;10332628;28;895;-73
2024/03/26 03:03:15;;;;;;;;;;;;;;;18.03;43.08;97833.38;10332973;28;1889;-73
2024/03/26 03:08:10;;;;;;;;;;;;;;;18.01;43.14;97822.09;10332849;28;960;-73
2024/03/26 03:13:06;;;;;;;;;;;;;;;18.00;43.19;97811.66;10331921;28;961;-73
2024/03/26 03:18:02;;;;;;;;;;;;;;;17.99;43.06;97805.56;10331888;28;755;-73
2024/03/26 03:22:58;;;;;;;;;;;;;;;17.99;43.16;97802.91;10331653;28;1952;-73
2024/03/26 03:27:54;;;;;;;;;;;;;;;17.98;43.04;97800.41;10331280;28;1004;-73
2024/03/26 03:32:50;;;;;;;;;;;;;;;17.96;42.94;97780.25;10332267;28;1200;-73
2024/03/26 03:37:45;;;;;;;;;;;;;;;17.96;43.07;97774.16;10331175;28;913;-72
2024/03/26 03:42:41;;;;;;;;;;;;;;;17.95;43.11;97759.31;10330802;28;1969;-73
2024/03/26 03:47:37;;;;;;;;;;;;;;;17.94;43.08;97752.34;10331368;28;917;-72
2024/03/26 03:52:33;;;;;;;;;;;;;;;17.94;43.25;97731.25;10331177;28;874;-72
2024/03/26 03:57:30;;;;;;;;;;;;;;;17.92;43.17;97725.25;10330447;28;914;-73
2024/03/26 04:02:26;;;;;;;;;;;;;;;17.92;43.08;97719.97;10329786;28;1894;-73
2024/03/26 04:07:21;;;;;;;;;;;;;;;17.91;43.06;97715.69;10330436;28;965;-73
2024/03/26 04:12:17;;;;;;;;;;;;;;;17.89;43.13;97710.53;10329107;28;1071;-73
2024/03/26 04:17:13;;;;;;;;;;;;;;;17.88;43.05;97695.66;10329733;28;810;-73
2024/03/26 04:22:09;;;;;;;;;;;;;;;17.87;43.09;97691.38;10329510;28;1898;-73
2024/03/26 04:27:05;;;;;;;;;;;;;;;17.86;42.92;97688.84;10329962;28;873;-73
2024/03/26 04:32:01;;;;;;;;;;;;;;;17.85;43.09;97668.72;10328593;28;1412;-73
2024/03/26 04:36:57;;;;;;;;;;;;;;;17.85;43.10;97666.91;10329635;28;905;-74
2024/03/26 04:41:54;;;;;;;;;;;;;;;17.84;43.09;97659.97;10328523;28;1910;-73
2024/03/26 04:46:50;;;;;;;;;;;;;;;17.86;43.17;97663.31;10329030;28;831;-73
2024/03/26 04:51:46;;;;;;;;;;;;;;;17.87;43.07;97648.34;10328914;28;897;-73
2024/03/26 04:56:42;;;;;;;;;;;;;;;17.87;43.20;97645.72;10328021;28;830;-73
2024/03/26 05:01:37;;;;;;;;;;;;;;;17.88;43.12;97637.69;10328524;28;949;-73
2024/03/26 05:06:33;;;;;;;;;;;;;;;17.90;42.97;97637.56;10327024;28;1882;-72
2024/03/26 05:11:29;;;;;;;;;;;;;;;17.90;43.07;97625.22;10326784;28;815;-73
2024/03/26 05:16:25;;;;;;;;;;;;;;;17.92;43.05;97631.22;10327166;28;846;-73
2024/03/26 05:21:21;;;;;;;;;;;;;;;17.92;43.21;97625.09;10327680;28;840;-73
2024/03/26 05:26:17;;;;;;;;;;;;;;;17.93;43.17;97618.88;10326849;28;1906;-73
2024/03/26 05:31:13;;;;;;;;;;;;;;;17.93;43.21;97608.34;10326576;28;1208;-73
2024/03/26 05:36:09;;;;;;;;;;;;;;;17.94;43.10;97595.03;10326575;28;937;-73
2024/03/26 05:41:05;;;;;;;;;;;;;;;17.95;43.29;97609.06;10325766;28;995;-73
2024/03/26 05:46:01;;;;;;;;;;;;;;;17.95;43.14;97599.34;10326317;28;1968;-73
2024/03/26 05:50:56;;;;;;;;;;;;;;;17.96;43.24;97608.09;10327302;28;901;-73
2024/03/26 05:55:52;;;;;;;;;;;;;;;17.98;43.09;97605.34;10326580;28;819;-73
2024/03/26 06:00:49;;;;;;;;;;;;;;;17.98;42.95;97602.72;10327020;28;891;-72
2024/03/26 06:05:44;;;;;;;;;;;;;;;17.99;43.04;97593.84;10326228;28;1945;-73
2024/03/26 06:10:40;;;;;;;;;;;;;;;17.98;43.03;97587.75;10325669;28;917;-73
2024/03/26 06:15:36;;;;;;;;;;;;;;;17.98;43.07;97581.63;10325732;28;814;-73
2024/03/26 06:20:32;;;;;;;;;;;;;;;17.99;43.03;97589.41;10324929;28;968;-73
2024/03/26 06:25:28;;;;;;;;;;;;;;;17.99;43.13;97584.13;10325345;28;1894;-73
2024/03/26 06:30:24;;;;;;;;;;;;;;;17.99;43.19;97581.50;10325367;28;1373;-72
2024/03/26 06:35:20;;;;;;;;;;;;;;;18.01;43.10;97576.13;10325191;28;769;-73
2024/03/26 06:40:15;;;;;;;;;;;;;;;18.00;43.08;97572.66;10324431;28;866;-72
2024/03/26 06:45:11;;;;;;;;;;;;;;;18.02;43.04;97581.25;10324986;28;1918;-73
2024/03/26 06:50:07;;;;;;;;;;;;;;;18.04;43.14;97570.59;10325440;28;802;-72
2024/03/26 06:55:03;;;;;;;;;;;;;;;18.05;43.02;97573.13;10325294;28;936;-72
2024/03/26 06:59:59;;;;;;;;;;;;;;;18.06;42.95;97576.59;10324246;28;1016;-72
2024/03/26 07:04:55;;;;;;;;;;;;;;;18.06;42.88;97580.06;10325110;28;1894;-79
2024/03/26 07:09:51;;;;;;;;;;;;;;;18.05;43.10;97583.66;10324428;28;934;-72
2024/03/26 07:14:46;;;;;;;;;;;;;;;18.05;43.17;97583.66;10324760;28;841;-73
2024/03/26 07:19:42;;;;;;;;;;;;;;;18.04;43.11;97570.59;10324226;28;925;-73
2024/03/26 07:24:38;;;;;;;;;;;;;;;18.03;43.19;97566.28;10324062;28;1899;-81
2024/03/26 07:29:34;;;;;;;;;;;;;;;18.01;43.15;97558.50;10324184;28;1210;-77
2024/03/26 07:34:30;;;;;;;;;;;;;;;18.01;43.15;97566.41;10326157;28;969;-72
2024/03/26 07:39:26;;;;;;;;;;;;;;;18.01;43.10;97555.03;10330579;28;951;-72
2024/03/26 07:44:22;;;;;;;;;;;;;;;17.99;43.20;97552.50;10330813;28;1918;-72
2024/03/26 07:49:18;;;;;;;;;;;;;;;18.00;43.21;97562.09;10331316;28;846;-73
2024/03/26 07:54:14;;;;;;;;;;;;;;;18.00;43.13;97556.84;10330644;28;860;-73
2024/03/26 07:59:10;;;;;;;;;;;;;;;18.01;42.99;97555.03;10330429;28;803;-72
2024/03/26 08:04:06;;;;;;;;;;;;;;;18.02;43.04;97556.69;10331020;28;1902;-76
2024/03/26 08:09:01;;;;;;;;;;;;;;;18.02;43.10;97549.63;10330832;28;840;-78
2024/03/26 08:13:57;;;;;;;;;;;;;;;18.02;43.04;97548.78;10329978;28;1080;-78
2024/03/26 08:18:53;;;;;;;;;;;;;;;18.03;43.11;97551.31;10330323;28;854;-75
2024/03/26 08:23:49;;;;;;;;;;;;;;;18.04;43.08;97554.78;10330040;28;1894;-73
2024/03/26 08:28:45;;;;;;;;;;;;;;;18.04;43.06;97552.16;10329780;28;1279;-73
2024/03/26 08:33:41;;;;;;;;;;;;;;;18.05;43.03;97548.53;10330420;28;1000;-72
2024/03/26 08:38:38;;;;;;;;;;;;;;;18.06;43.07;97537.06;10329525;28;843;-72
2024/03/26 08:43:34;;;;;;;;;;;;;;;18.07;42.79;97529.00;10328604;28;1965;-72
2024/03/26 08:48:30;;;;;;;;;;;;;;;18.07;43.05;97529.00;10327982;28;913;-72
2024/03/26 08:53:26;;;;;;;;;;;;;;;18.08;42.98;97524.59;10327691;28;1203;-72
2024/03/26 08:58:21;;;;;;;;;;;;;;;18.07;43.01;97526.38;10328099;28;826;-72
2024/03/26 09:03:17;;;;;;;;;;;;;;;18.08;42.90;97511.41;10327828;28;1898;-72
2024/03/26 09:08:13;;;;;;;;;;;;;;;18.09;43.13;97520.97;10327704;28;822;-72
2024/03/26 09:13:09;;;;;;;;;;;;;;;18.08;43.08;97506.97;10327503;28;904;-72
2024/03/26 09:18:07;;;;;;;;;;;;;;;18.09;43.15;97513.06;10327321;28;750;-72
2024/03/26 09:23:03;;;;;;;;;;;;;;;18.10;43.17;97507.69;10327301;28;1894;-72
2024/03/26 09:28:00;;;;;;;;;;;;;;;18.11;42.76;97500.63;10327907;28;1027;-72
2024/03/26 09:32:56;;;;;;;;;;;;;;;18.10;43.08;97493.66;10327722;28;1243;-72
2024/03/26 09:37:52;;;;;;;;;;;;;;;18.10;43.07;97491.00;10327083;28;861;-72
2024/03/26 09:42:48;;;;;;;;;;;;;;;18.09;43.04;97495.44;10326435;28;1910;-72
2024/03/26 09:47:43;;;;;;;;;;;;;;;18.09;43.03;97500.72;10326207;28;1435;-72
2024/03/26 09:52:39;;;;;;;;;;;;;;;18.09;43.10;97478.81;10326731;28;810;-72
2024/03/26 09:57:35;;;;;;;;;;;;;;;18.09;43.13;97474.38;10326333;28;794;-72
2024/03/26 10:02:31;;;;;;;;;;;;;;;18.10;43.18;97472.56;10325817;28;1898;-72
2024/03/26 10:07:27;;;;;;;;;;;;;;;18.09;43.14;97469.09;10326327;28;889;-73
2024/03/26 10:12:23;;;;;;;;;;;;;;;18.11;43.01;97463.72;10326241;28;878;-72
2024/03/26 10:17:19;;;;;;;;;;;;;;;18.10;43.14;97462.88;10325522;28;960;-72
2024/03/26 10:22:15;;;;;;;;;;;;;;;18.12;43.09;97457.47;10325644;28;1901;-72
2024/03/26 10:27:11;;;;;;;;;;;;;;;18.11;42.95;97451.34;10325900;28;854;-72
2024/03/26 10:32:07;;;;;;;;;;;;;;;18.12;43.06;97453.03;10325617;28;1408;-72
2024/03/26 10:37:03;;;;;;;;;;;;;;;18.13;43.21;97454.72;10325155;28;999;-72
2024/03/26 10:42:00;;;;;;;;;;;;;;;18.14;43.14;97439.72;10325170;28;967;-72
2024/03/26 10:46:55;;;;;;;;;;;;;;;18.14;42.97;97432.66;10324906;28;1980;-72
2024/03/26 10:51:51;;;;;;;;;;;;;;;18.15;42.98;97431.66;10324998;28;846;-72
2024/03/26 10:56:47;;;;;;;;;;;;;;;18.16;43.04;97422.81;10325265;28;858;-72
2024/03/26 11:01:43;;;;;;;;;;;;;;;18.16;43.13;97414.91;10325270;28;869;-72
2024/03/26 11:06:39;;;;;;;;;;;;;;;18.17;43.15;97413.94;10323936;28;1890;-72
2024/03/26 11:11:35;;;;;;;;;;;;;;;18.17;42.92;97408.66;10312417;28;767;-72
2024/03/26 11:16:31;;;;;;;;;;;;;;;18.17;43.12;97406.03;10332086;28;806;-72
2024/03/26 11:21:27;;;;;;;;;;;;;;;18.17;42.98;97403.38;10332488;28;893;-73
2024/03/26 11:26:22;;;;;;;;;;;;;;;18.19;43.10;97395.38;10331050;28;1948;-72
2024/03/26 11:31:19;;;;;;;;;;;;;;;18.20;42.84;97396.19;10331074;28;1308;-72
2024/03/26 11:36:14;;;;;;;;;;;;;;;18.18;43.01;97397.16;10331289;28;902;-72
2024/03/26 11:41:11;;;;;;;;;;;;;;;18.19;42.96;97395.38;10331703;28;1394;-72
2024/03/26 11:46:07;;;;;;;;;;;;;;;18.20;43.15;97396.19;10331522;28;1918;-72
2024/03/26 11:51:04;;;;;;;;;;;;;;;18.21;43.10;97397.84;10330849;28;968;-72
2024/03/26 11:55:59;;;;;;;;;;;;;;;18.21;42.91;97392.59;10330516;28;775;-70
2024/03/26 12:00:55;;;;;;;;;;;;;;;18.20;42.95;97391.75;10329882;28;838;-75
2024/03/26 12:05:51;;;;;;;;;;;;;;;18.20;43.12;97381.22;10330233;28;1971;-73
2024/03/26 12:10:47;;;;;;;;;;;;;;;18.19;43.05;97379.53;10330103;28;762;-73
2024/03/26 12:15:43;;;;;;;;;;;;;;;18.19;43.03;97382.19;10329893;28;921;-73
2024/03/26 12:20:39;;;;;;;;;;;;;;;18.18;43.08;97362.91;10329448;28;913;-73
2024/03/26 12:25:34;;;;;;;;;;;;;;;18.18;43.19;97352.34;10328954;28;1910;-72
2024/03/26 12:30:30;;;;;;;;;;;;;;;18.20;42.98;97349.56;10329114;28;1116;-73
2024/03/26 12:35:26;;;;;;;;;;;;;;;18.20;42.98;97338.19;10328537;28;838;-73
2024/03/26 12:40:22;;;;;;;;;;;;;;;18.22;43.08;97338.91;10329614;28;870;-73
2024/03/26 12:45:18;;;;;;;;;;;;;;;18.20;43.23;97330.28;10329237;28;1917;-73
2024/03/26 12:50:15;;;;;;;;;;;;;;;18.21;43.05;97326.66;10328524;28;917;-73
2024/03/26 12:55:10;;;;;;;;;;;;;;;18.22;43.29;97323.09;10328798;28;865;-73
2024/03/26 13:00:07;;;;;;;;;;;;;;;18.20;43.26;97317.94;10328599;28;957;-72
2024/03/26 13:05:03;;;;;;;;;;;;;;;18.21;43.19;97313.47;10327790;28;1897;-73
2024/03/26 13:09:59;;;;;;;;;;;;;;;18.22;43.20;97302.00;10327939;28;803;-73
2024/03/26 13:14:55;;;;;;;;;;;;;;;18.22;43.37;97294.09;10328099;28;937;-72
2024/03/26 13:19:50;;;;;;;;;;;;;;;18.22;43.43;97281.72;10328682;28;1008;-73
2024/03/26 13:24:46;;;;;;;;;;;;;;;18.23;43.17;97272.00;10327315;28;1947;-72
2024/03/26 13:29:42;;;;;;;;;;;;;;;18.23;43.26;97270.22;10326840;28;1374;-73
2024/03/26 13:34:38;;;;;;;;;;;;;;;18.23;43.28;97264.94;10326980;28;929;-73
2024/03/26 13:39:34;;;;;;;;;;;;;;;18.24;43.27;97256.06;10326681;28;781;-76
2024/03/26 13:44:30;;;;;;;;;;;;;;;18.26;43.29;97245.38;10326366;28;1918;-73
2024/03/26 13:49:25;;;;;;;;;;;;;;;18.26;43.38;97245.38;10326238;28;763;-73
2024/03/26 13:54:21;;;;;;;;;;;;;;;18.25;43.48;97241.09;10326235;28;905;-72
2024/03/26 13:59:17;;;;;;;;;;;;;;;18.25;43.36;97230.53;10326617;28;862;-72
2024/03/26 14:04:13;;;;;;;;;;;;;;;18.25;43.39;97223.47;10326137;28;1894;-73
2024/03/26 14:09:09;;;;;;;;;;;;;;;18.25;43.47;97217.34;10325703;28;866;-73
2024/03/26 14:14:05;;;;;;;;;;;;;;;18.27;43.48;97212.78;10324773;28;1054;-72
2024/03/26 14:19:01;;;;;;;;;;;;;;;18.28;43.31;97194.19;10325834;28;882;-72
2024/03/26 14:23:56;;;;;;;;;;;;;;;18.32;43.33;97189.50;10324508;28;1902;-72
2024/03/26 14:28:53;;;;;;;;;;;;;;;18.34;43.44;97182.31;10324957;28;1171;-72
2024/03/26 14:33:48;;;;;;;;;;;;;;;18.37;43.22;97179.41;10325582;28;789;-72
2024/03/26 14:38:44;;;;;;;;;;;;;;;18.38;43.39;97170.50;10324858;28;888;-72
2024/03/26 14:43:40;;;;;;;;;;;;;;;18.37;43.45;97160.94;10328214;28;1910;-72
2024/03/26 14:48:36;;;;;;;;;;;;;;;18.36;43.49;97156.59;10333657;28;866;-73
2024/03/26 14:53:32;;;;;;;;;;;;;;;18.35;43.46;97153.16;10332879;28;964;-72
2024/03/26 14:58:28;;;;;;;;;;;;;;;18.35;43.50;97150.50;10332537;28;1039;-72
2024/03/26 15:03:24;;;;;;;;;;;;;;;18.37;43.41;97132.75;10332280;28;1972;-75
2024/03/26 15:08:20;;;;;;;;;;;;;;;18.36;43.35;97131.06;10332777;28;860;-72
2024/03/26 15:13:16;;;;;;;;;;;;;;;18.35;43.60;97134.69;10331998;28;794;-73
2024/03/26 15:18:12;;;;;;;;;;;;;;;18.35;43.50;97128.56;10332465;28;884;-72
2024/03/26 15:23:07;;;;;;;;;;;;;;;18.35;43.51;97110.94;10331521;28;1918;-72
2024/03/26 15:33:18;;;;;;;;;;;;;;;18.42;43.40;97111.25;10331599;28;848;-73
2024/03/26 15:38:14;;;;;;;;;;;;;;;18.50;43.20;97100.03;10331699;28;962;-72
2024/03/26 15:43:09;;;;;;;;;;;;;;;18.44;43.38;97104.03;10330880;28;1913;-72
2024/03/26 15:48:05;;;;;;;;;;;;;;;18.45;43.27;97089.88;10330151;28;1024;-73
2024/03/26 15:53:01;;;;;;;;;;;;;;;18.46;43.27;97074.88;10330641;28;842;-72
2024/03/26 15:57:57;;;;;;;;;;;;;;;18.42;43.45;97058.50;10329755;28;884;-72
2024/03/26 16:02:53;;;;;;;;;;;;;;;18.41;43.46;97067.38;10331496;28;1963;-72
2024/03/26 16:07:49;;;;;;;;;;;;;;;18.40;43.27;97060.44;10330581;28;964;-72
2024/03/26 16:12:45;;;;;;;;;;;;;;;18.39;43.60;97070.16;10329914;28;905;-72
2024/03/26 16:17:40;;;;;;;;;;;;;;;18.39;43.54;97056.13;10330364;28;984;-72
2024/03/26 16:22:36;;;;;;;;;;;;;;;18.38;43.41;97052.66;10329906;28;1957;-72
2024/03/26 16:27:32;;;;;;;;;;;;;;;18.39;43.45;97053.47;10329819;28;921;-72
2024/03/26 16:32:29;;;;;;;;;;;;;;;18.38;43.60;97043.91;10328939;28;1550;-72
2024/03/26 16:37:25;;;;;;;;;;;;;;;18.38;43.34;97036.00;10329088;28;896;-73
2024/03/26 16:42:21;;;;;;;;;;;;;;;18.38;43.55;97036.00;10329343;28;1910;-73
2024/03/26 16:47:16;;;;;;;;;;;;;;;18.37;43.47;97031.72;10329639;28;921;-72
2024/03/26 16:52:12;;;;;;;;;;;;;;;18.38;43.73;97030.72;10328211;28;910;-72
2024/03/26 16:57:08;;;;;;;;;;;;;;;18.38;43.54;97036.00;10327967;28;790;-72
2024/03/26 17:02:04;;;;;;;;;;;;;;;18.38;43.63;97028.09;10327809;28;780;-72
2024/03/26 17:07:00;;;;;;;;;;;;;;;18.38;43.62;97025.47;10326577;28;1902;-72
2024/03/26 17:11:56;;;;;;;;;;;;;;;18.38;43.52;97020.19;10326810;28;874;-74
2024/03/26 17:16:52;;;;;;;;;;;;;;;18.37;43.63;97016.72;10327178;28;879;-72
2024/03/26 17:21:48;;;;;;;;;;;;;;;18.38;43.80;97007.81;10326467;28;891;-73
2024/03/26 17:26:44;;;;;;;;;;;;;;;18.38;43.58;97013.09;10326780;28;1957;-72
2024/03/26 17:31:40;;;;;;;;;;;;;;;18.37;43.64;97007.97;10327331;28;1295;-72
2024/03/26 17:36:36;;;;;;;;;;;;;;;18.37;43.70;97015.88;10326469;28;884;-73
2024/03/26 17:41:32;;;;;;;;;;;;;;;18.37;43.53;97013.25;10326847;28;791;-72
2024/03/26 17:46:27;;;;;;;;;;;;;;;18.36;43.60;97012.41;10326072;28;1984;-72
2024/03/26 17:51:23;;;;;;;;;;;;;;;18.35;43.76;97009.91;10325939;28;984;-72
2024/03/26 17:56:19;;;;;;;;;;;;;;;18.36;43.74;97011.56;10325776;28;921;-72
2024/03/26 18:01:15;;;;;;;;;;;;;;;18.37;43.74;97016.72;10325736;28;772;-73
2024/03/26 18:06:11;;;;;;;;;;;;;;;18.36;43.78;97017.66;10325495;28;1897;-73
2024/03/26 18:11:09;;;;;;;;;;;;;;;18.36;43.58;97024.75;10325425;28;883;-73
2024/03/26 18:16:05;;;;;;;;;;;;;;;18.37;43.74;97022.00;10325527;28;998;-73
2024/03/26 18:21:01;;;;;;;;;;;;;;;18.36;43.73;97020.31;10324946;28;834;-73
2024/03/26 18:25:57;;;;;;;;;;;;;;;18.36;43.78;97011.56;10325113;28;1898;-73
2024/03/26 18:30:53;;;;;;;;;;;;;;;18.36;43.74;97004.47;10325159;28;1132;-73
2024/03/26 18:35:49;;;;;;;;;;;;;;;18.37;43.74;97003.53;10324903;28;923;-73
2024/03/26 18:40:45;;;;;;;;;;;;;;;18.36;43.54;97001.84;10324747;28;871;-73
2024/03/26 18:45:41;;;;;;;;;;;;;;;18.37;43.74;96992.97;10324689;28;1906;-72
2024/03/26 18:50:36;;;;;;;;;;;;;;;18.37;43.64;96995.63;10324036;28;839;-73
2024/03/26 18:55:32;;;;;;;;;;;;;;;18.37;43.83;96985.06;10324527;28;935;-73
2024/03/26 19:00:28;;;;;;;;;;;;;;;18.39;43.63;96998.09;10325038;28;799;-73
2024/03/26 19:05:24;;;;;;;;;;;;;;;18.38;43.82;97005.19;10325600;28;1893;-74
2024/03/26 19:10:20;;;;;;;;;;;;;;;18.39;44.06;97003.38;10324292;28;921;-73
2024/03/26 19:15:16;;;;;;;;;;;;;;;18.39;43.69;97001.59;10323592;28;1440;-74
2024/03/26 19:20:12;;;;;;;;;;;;;;;18.40;43.80;97005.06;10324150;28;780;-73
2024/03/26 19:25:07;;;;;;;;;;;;;;;18.41;43.89;97001.44;10323961;28;1898;-73
2024/03/26 19:30:04;;;;;;;;;;;;;;;18.41;43.85;96998.81;10326003;28;1197;-73
2024/03/26 19:35:00;;;;;;;;;;;;;;;18.43;43.85;96998.69;10331729;28;858;-74
2024/03/26 19:39:56;;;;;;;;;;;;;;;18.44;44.18;96987.97;10331051;28;977;-74
2024/03/26 19:44:51;;;;;;;;;;;;;;;18.44;44.09;96982.69;10331516;28;1906;-73
2024/03/26 19:49:47;;;;;;;;;;;;;;;18.45;43.92;96980.91;10331930;28;849;-73
2024/03/26 19:54:43;;;;;;;;;;;;;;;18.45;44.03;96979.09;10330494;28;862;-74
2024/03/26 19:59:39;;;;;;;;;;;;;;;18.46;44.06;96978.13;10330349;28;802;-73
2024/03/26 20:04:35;;;;;;;;;;;;;;;18.46;44.03;96978.13;10330714;28;1945;-73
2024/03/26 20:09:31;;;;;;;;;;;;;;;18.47;43.96;96965.78;10330170;28;921;-74
2024/03/26 20:14:27;;;;;;;;;;;;;;;18.48;44.03;96970.91;10329252;28;786;-73
2024/03/26 20:19:23;;;;;;;;;;;;;;;18.49;44.15;96969.09;10330292;28;826;-74
2024/03/26 20:24:19;;;;;;;;;;;;;;;18.48;44.02;96965.63;10329357;28;1898;-74
2024/03/26 20:29:14;;;;;;;;;;;;;;;18.47;43.97;96966.63;10328442;28;1449;-73
2024/03/26 20:34:10;;;;;;;;;;;;;;;18.48;43.90;96972.72;10329043;28;776;-74
2024/03/26 20:39:09;;;;;;;;;;;;;;;18.48;44.11;96965.63;10328844;28;917;-74
2024/03/26 20:44:04;;;;;;;;;;;;;;;18.47;44.03;96964.00;10328426;28;1971;-74
2024/03/26 20:49:00;;;;;;;;;;;;;;;18.46;44.03;96970.22;10329025;28;886;-73
2024/03/26 20:53:56;;;;;;;;;;;;;;;18.46;44.04;96966.75;10328793;28;932;-73
2024/03/26 20:58:52;;;;;;;;;;;;;;;18.45;44.06;96973.00;10328779;28;929;-74
2024/03/26 21:03:48;;;;;;;;;;;;;;;18.45;43.97;96968.56;10327799;28;1889;-73
2024/03/26 21:08:44;;;;;;;;;;;;;;;18.45;43.91;96967.72;10328290;28;754;-74
2024/03/26 21:13:40;;;;;;;;;;;;;;;18.44;44.12;96979.22;10327441;28;774;-73
2024/03/26 21:18:37;;;;;;;;;;;;;;;18.42;43.93;96995.22;10326626;28;1060;-73
2024/03/26 21:23:33;;;;;;;;;;;;;;;18.42;43.91;96983.81;10326937;28;1890;-73
2024/03/26 21:28:29;;;;;;;;;;;;;;;18.42;43.81;96989.94;10327946;28;1037;-72
2024/03/26 21:33:25;;;;;;;;;;;;;;;18.41;43.94;96982.97;10326752;28;822;-73
2024/03/26 21:38:20;;;;;;;;;;;;;;;18.41;43.68;96977.72;10326540;28;885;-73
2024/03/26 21:43:16;;;;;;;;;;;;;;;18.38;43.96;96973.53;10326211;28;1978;-73
2024/03/26 21:48:13;;;;;;;;;;;;;;;18.38;43.88;96964.81;10326696;28;786;-73
2024/03/26 21:53:08;;;;;;;;;;;;;;;18.36;43.82;96959.66;10325553;28;926;-73
2024/03/26 21:58:04;;;;;;;;;;;;;;;18.35;43.96;96960.63;10326412;28;914;-74
2024/03/26 22:03:00;;;;;;;;;;;;;;;18.34;43.83;96964.25;10325581;28;1894;-73
2024/03/26 22:07:56;;;;;;;;;;;;;;;18.34;43.81;96956.34;10325629;28;880;-73
2024/03/26 22:12:52;;;;;;;;;;;;;;;18.33;43.71;96941.47;10325519;28;953;-73
2024/03/26 22:17:48;;;;;;;;;;;;;;;18.31;43.87;96937.31;10325137;28;1004;-73
2024/03/26 22:22:44;;;;;;;;;;;;;;;18.30;43.80;96925.09;10325185;28;1894;-73
2024/03/26 22:27:39;;;;;;;;;;;;;;;18.29;43.91;96920.81;10325911;28;1024;-72
2024/03/26 22:32:35;;;;;;;;;;;;;;;18.28;44.03;96913.84;10325639;28;1160;-73
2024/03/26 22:37:32;;;;;;;;;;;;;;;18.26;43.86;96916.66;10324841;28;822;-72
2024/03/26 22:42:29;;;;;;;;;;;;;;;18.24;43.96;96899.31;10325060;28;1914;-73
2024/03/26 22:47:25;;;;;;;;;;;;;;;18.24;43.88;96896.66;10325013;28;837;-72
2024/03/26 22:52:21;;;;;;;;;;;;;;;18.21;43.76;96891.66;10325391;28;903;-73
2024/03/26 22:57:16;;;;;;;;;;;;;;;18.21;43.93;96897.78;10325444;28;924;-72
2024/03/26 23:02:12;;;;;;;;;;;;;;;18.20;44.01;96896.09;10324210;28;1067;-72
2024/03/26 23:07:08;;;;;;;;;;;;;;;18.20;43.73;96895.25;10330002;28;1886;-72
2024/03/26 23:12:04;;;;;;;;;;;;;;;18.18;43.93;96890.97;10333087;28;890;-73
2024/03/26 23:17:00;;;;;;;;;;;;;;;18.17;44.06;96884.03;10333038;28;947;-72
2024/03/26 23:21:56;;;;;;;;;;;;;;;18.16;43.94;96876.28;10332065;28;783;-73
2024/03/26 23:26:52;;;;;;;;;;;;;;;18.15;43.86;96864.88;10332487;28;1951;-72
2024/03/26 23:31:48;;;;;;;;;;;;;;;18.13;44.04;96853.66;10331595;28;1363;-73
2024/03/26 23:36:44;;;;;;;;;;;;;;;18.14;44.11;96851.84;10331413;28;934;-72
2024/03/26 23:41:40;;;;;;;;;;;;;;;18.13;44.01;96850.16;10331858;28;898;-72
2024/03/26 23:46:36;;;;;;;;;;;;;;;18.11;44.11;96842.41;10331858;28;1953;-72
2024/03/26 23:51:31;;;;;;;;;;;;;;;18.09;44.02;96840.88;10330984;28;870;-72
2024/03/26 23:56:27;;;;;;;;;;;;;;;18.08;44.21;96842.69;10330228;28;957;-72
